createdAt,value
2018-02-07T00:06:01.716Z,99185.20
2018-02-07T00:12:06.399Z,99186.90
2018-02-07T00:18:11.719Z,99180.55
2018-02-07T00:24:16.308Z,99173.78
2018-02-07T00:30:22.231Z,99179.57
2018-02-07T00:36:26.811Z,99176.00
2018-02-07T00:42:31.362Z,99173.98
2018-02-07T00:48:35.880Z,99182.55
2018-02-07T00:54:40.424Z,99179.70
2018-02-07T01:00:45.682Z,99189.64
2018-02-07T01:06:51.576Z,99192.81
2018-02-07T01:12:56.141Z,99195.90
2018-02-07T01:19:01.054Z,99193.89
2018-02-07T01:25:05.574Z,99194.94
2018-02-07T01:31:10.071Z,99187.12
2018-02-07T01:37:14.793Z,99187.50
2018-02-07T01:43:19.332Z,99199.41
2018-02-07T01:49:24.062Z,99197.02
2018-02-07T01:55:28.565Z,99198.89
2018-02-07T02:01:33.056Z,99200.25
2018-02-07T02:07:37.534Z,99205.16
2018-02-07T02:13:42.066Z,99202.77
2018-02-07T02:19:46.588Z,99202.14
2018-02-07T02:25:51.822Z,99203.02
2018-02-07T02:31:57.360Z,99197.45
2018-02-07T02:38:02.827Z,99185.54
2018-02-07T02:44:07.388Z,99186.45
2018-02-07T02:50:11.912Z,99191.32
2018-02-07T02:56:16.782Z,99193.98
2018-02-07T03:02:22.454Z,99188.42
2018-02-07T03:08:27.295Z,99183.78
2018-02-07T03:14:31.892Z,99171.16
2018-02-07T03:20:36.494Z,99164.20
2018-02-07T03:26:41.195Z,99158.53
2018-02-07T03:32:45.697Z,99163.58
2018-02-07T03:38:50.634Z,99160.26
2018-02-07T03:44:56.129Z,99170.87
2018-02-07T03:51:00.658Z,99178.00
2018-02-07T03:57:05.538Z,99182.70
2018-02-07T04:03:10.074Z,99179.31
2018-02-07T04:09:14.641Z,99183.69
2018-02-07T04:15:20.690Z,99190.92
2018-02-07T04:21:26.225Z,99194.75
2018-02-07T04:27:30.855Z,99200.59
2018-02-07T04:33:35.690Z,99204.42
2018-02-07T04:39:40.430Z,99200.11
2018-02-07T04:45:45.069Z,99204.88
2018-02-07T04:51:50.274Z,99207.52
2018-02-07T04:57:55.175Z,99201.31
2018-02-07T05:04:00.025Z,99203.16
2018-02-07T05:10:04.557Z,99199.52
2018-02-07T05:16:09.060Z,99189.98
2018-02-07T05:22:14.000Z,99201.86
2018-02-07T05:28:18.581Z,99201.37
2018-02-07T05:34:23.611Z,99206.98
2018-02-07T05:40:28.157Z,99206.38
2018-02-07T05:46:32.984Z,99215.45
2018-02-07T05:52:39.443Z,99220.55
2018-02-07T05:58:44.269Z,99226.63
2018-02-07T06:04:48.893Z,99220.20
2018-02-07T06:10:54.411Z,99221.05
2018-02-07T06:16:59.673Z,99223.09
2018-02-07T06:23:04.175Z,99223.81
2018-02-07T06:29:08.705Z,99231.80
2018-02-07T06:35:13.348Z,99242.48
2018-02-07T06:41:17.933Z,99257.75
2018-02-07T06:47:23.082Z,99251.28
2018-02-07T06:53:28.404Z,99253.33
2018-02-07T06:59:33.928Z,99250.80
2018-02-07T07:05:38.732Z,99257.98
2018-02-07T07:11:43.501Z,99254.31
2018-02-07T07:17:48.163Z,99254.13
2018-02-07T07:23:53.324Z,99272.45
2018-02-07T07:29:57.891Z,99285.96
2018-02-07T07:36:03.408Z,99284.02
2018-02-07T07:42:07.907Z,99284.98
2018-02-07T07:48:12.402Z,99297.00
2018-02-07T07:54:17.034Z,99301.02
2018-02-07T08:00:21.604Z,99296.27
2018-02-07T08:06:26.132Z,99294.41
2018-02-07T08:12:30.635Z,99282.84
2018-02-07T08:18:35.157Z,99279.86
2018-02-07T08:24:39.679Z,99273.09
2018-02-07T08:30:44.171Z,99280.22
2018-02-07T08:36:49.441Z,99276.98
2018-02-07T08:42:53.930Z,99276.34
2018-02-07T08:48:58.443Z,99288.02
2018-02-07T08:55:02.950Z,99293.34
2018-02-07T09:01:08.195Z,99299.96
2018-02-07T09:07:12.663Z,99299.70
2018-02-07T09:13:17.187Z,99308.64
2018-02-07T09:19:22.577Z,99308.27
2018-02-07T09:25:27.271Z,99316.95
2018-02-07T09:31:31.826Z,99317.69
2018-02-07T09:37:36.325Z,99319.91
2018-02-07T09:43:40.798Z,99327.27
2018-02-07T09:49:45.257Z,99339.53
2018-02-07T09:55:51.163Z,99337.87
2018-02-07T10:01:55.803Z,99340.10
2018-02-07T10:08:01.056Z,99343.27
2018-02-07T10:14:05.530Z,99349.41
2018-02-07T10:20:10.008Z,99357.18
2018-02-07T10:26:14.631Z,99363.42
2018-02-07T10:32:21.078Z,99366.37
2018-02-07T10:38:25.835Z,99367.59
2018-02-07T10:44:30.428Z,99376.80
2018-02-07T10:50:35.696Z,99377.97
2018-02-07T10:56:40.176Z,99388.91
2018-02-07T11:02:45.587Z,99387.84
2018-02-07T11:08:50.102Z,99392.80
2018-02-07T11:14:55.842Z,99393.59
2018-02-07T11:21:00.403Z,99392.76
2018-02-07T11:27:04.914Z,99388.02
2018-02-07T11:33:09.452Z,99399.17
2018-02-07T11:39:13.974Z,99397.50
2018-02-07T11:45:18.485Z,99400.44
2018-02-07T11:51:23.008Z,99392.94
2018-02-07T11:57:27.951Z,99387.93
2018-02-07T12:03:32.528Z,99383.87
2018-02-07T12:09:36.999Z,99374.59
2018-02-07T12:15:41.529Z,99370.70
2018-02-07T12:21:45.991Z,99377.32
2018-02-07T12:27:50.941Z,99371.61
2018-02-07T12:33:55.660Z,99366.76
2018-02-07T12:40:00.186Z,99356.78
2018-02-07T12:46:05.462Z,99349.34
2018-02-07T12:52:09.936Z,99354.78
2018-02-07T12:58:14.451Z,99351.67
2018-02-07T13:04:18.977Z,99353.79
2018-02-07T13:10:23.523Z,99349.34
2018-02-07T13:16:28.084Z,99341.39
2018-02-07T13:22:33.327Z,99342.52
2018-02-07T13:28:38.774Z,99335.20
2018-02-07T13:34:44.023Z,99345.06
2018-02-07T13:40:48.542Z,99336.32
2018-02-07T13:46:53.123Z,99341.73
2018-02-07T13:52:58.355Z,99342.06
2018-02-07T13:59:02.836Z,99347.87
2018-02-07T14:05:07.332Z,99343.80
2018-02-07T14:11:11.927Z,99337.63
2018-02-07T14:17:16.487Z,99341.37
2018-02-07T14:23:21.861Z,99347.58
2018-02-07T14:29:26.470Z,99356.06
2018-02-07T14:35:31.026Z,99352.80
2018-02-07T14:41:35.482Z,99343.46
2018-02-07T14:47:40.006Z,99343.08
2018-02-07T14:53:44.525Z,99344.00
2018-02-07T14:59:50.374Z,99354.33
2018-02-07T15:05:55.037Z,99363.00
2018-02-07T15:11:59.515Z,99357.59
2018-02-07T15:18:04.014Z,99367.53
2018-02-07T15:24:08.548Z,99371.03
2018-02-07T15:30:13.946Z,99386.16
2018-02-07T15:36:19.643Z,99392.73
2018-02-07T15:42:24.302Z,99389.25
2018-02-07T15:48:28.969Z,99396.20
2018-02-07T15:54:33.490Z,99400.84
2018-02-07T16:00:38.181Z,99396.02
2018-02-07T16:06:42.720Z,99404.63
2018-02-07T16:12:47.190Z,99411.42
2018-02-07T16:18:53.864Z,99419.30
2018-02-07T16:24:58.399Z,99436.55
2018-02-07T16:31:03.687Z,99446.03
2018-02-07T16:37:08.167Z,99453.19
2018-02-07T16:43:12.653Z,99455.69
2018-02-07T16:49:17.127Z,99462.40
2018-02-07T16:55:22.663Z,99464.97
2018-02-07T17:01:27.228Z,99463.95
2018-02-07T17:07:32.519Z,99480.42
2018-02-07T17:13:37.099Z,99480.77
2018-02-07T17:19:41.582Z,99476.05
2018-02-07T17:25:46.949Z,99482.92
2018-02-07T17:31:57.213Z,99473.72
2018-02-07T17:38:02.466Z,99475.56
2018-02-07T17:44:06.987Z,99479.50
2018-02-07T17:50:12.254Z,99479.23
2018-02-07T17:56:16.763Z,99483.27
2018-02-07T18:02:22.054Z,99482.72
2018-02-07T18:08:26.585Z,99483.53
2018-02-07T18:14:31.263Z,99481.23
2018-02-07T18:20:35.759Z,99488.24
2018-02-07T18:26:40.401Z,99492.29
2018-02-07T18:32:44.897Z,99490.11
2018-02-07T18:38:49.466Z,99493.89
2018-02-07T18:44:54.280Z,99493.09
2018-02-07T18:50:58.893Z,99509.88
2018-02-07T18:57:04.291Z,99516.79
2018-02-07T19:03:09.154Z,99519.69
2018-02-07T19:09:14.642Z,99526.19
2018-02-07T19:15:20.719Z,99537.70
2018-02-07T19:21:25.543Z,99543.13
2018-02-07T19:27:30.045Z,99550.20
2018-02-07T19:33:34.561Z,99554.86
2018-02-07T19:39:39.406Z,99563.75
2018-02-07T19:45:43.886Z,99562.94
2018-02-07T19:51:49.518Z,99567.33
2018-02-07T19:57:54.441Z,99563.36
2018-02-07T20:03:58.966Z,99570.03
2018-02-07T20:10:03.525Z,99578.70
2018-02-07T20:16:08.842Z,99574.14
2018-02-07T20:22:13.451Z,99593.36
2018-02-07T20:28:18.108Z,99597.98
2018-02-07T20:34:23.436Z,99594.99
2018-02-07T20:40:27.954Z,99600.38
2018-02-07T20:46:32.432Z,99601.35
2018-02-07T20:52:36.917Z,99603.52
2018-02-07T20:58:41.430Z,99605.56
2018-02-07T21:04:46.080Z,99608.74
2018-02-07T21:10:51.049Z,99605.40
2018-02-07T21:16:55.538Z,99606.48
2018-02-07T21:23:00.030Z,99607.11
2018-02-07T21:29:05.287Z,99612.09
2018-02-07T21:35:09.820Z,99606.53
2018-02-07T21:41:14.311Z,99611.36
2018-02-07T21:47:18.827Z,99616.63
2018-02-07T21:53:23.839Z,99618.89
2018-02-07T21:59:28.360Z,99626.64
2018-02-07T22:05:32.869Z,99639.45
2018-02-07T22:11:37.419Z,99622.18
2018-02-07T22:17:41.930Z,99624.44
2018-02-07T22:23:46.566Z,99625.19
2018-02-07T22:29:51.066Z,99622.09
2018-02-07T22:35:55.552Z,99629.61
2018-02-07T22:42:00.038Z,99631.92
2018-02-07T22:48:04.544Z,99629.13
2018-02-07T22:54:09.080Z,99631.58
2018-02-07T23:00:13.697Z,99630.88
2018-02-07T23:06:18.171Z,99635.03
2018-02-07T23:12:24.333Z,99641.64
2018-02-07T23:18:28.913Z,99647.88
2018-02-07T23:24:33.839Z,99651.16
2018-02-07T23:30:38.447Z,99656.73
2018-02-07T23:36:43.719Z,99662.80
2018-02-07T23:42:48.206Z,99666.78
2018-02-07T23:48:53.539Z,99662.31
2018-02-07T23:54:58.057Z,99667.52
